Time;durP1;ratioP1;P1;durP2;ratioP2;P2;SDS_P1;SDS_P2;PMS_P1;PMS_P2;Temp;Humidity;BMP_temperature;BMP_pressure;BME280_temperature;BME280_humidity;BME280_pressure;Samples;Min_cycle;Max_cycle;Signal;HPM_P1;HPM_P2
2022/12/05 00:01:15;;;;;;;42.05;19.77;;;;;;;3.38;95.59;101150.50;5045045;28;20037;-68
2022/12/05 00:03:41;;;;;;;42.28;20.48;;;;;;;3.37;95.37;101156.44;5065784;28;20033;-68
2022/12/05 00:06:06;;;;;;;35.30;17.50;;;;;;;3.38;95.58;101152.19;5056899;28;20067;-68
2022/12/05 00:08:32;;;;;;;41.33;19.83;;;;;;;3.37;95.06;101153.91;5039153;28;20513;-68
2022/12/05 00:10:57;;;;;;;35.88;17.80;;;;;;;3.34;94.84;101153.81;5041902;28;20576;-68
2022/12/05 00:13:22;;;;;;;41.58;19.33;;;;;;;3.35;95.29;101149.56;5045394;28;20070;-68
2022/12/05 00:15:48;;;;;;;40.30;19.73;;;;;;;3.34;95.64;101152.94;5045466;28;20047;-68
2022/12/05 00:18:13;;;;;;;38.60;19.42;;;;;;;3.34;95.85;101152.94;5051071;28;20513;-68
2022/12/05 00:20:45;;;;;;;42.47;19.48;;;;;;;3.31;95.58;101150.31;5055519;28;20044;-68
2022/12/05 00:23:10;;;;;;;39.00;18.35;;;;;;;3.31;95.66;101158.84;5057681;28;20081;-68
2022/12/05 00:25:35;;;;;;;39.40;20.58;;;;;;;3.31;95.44;101168.19;5064177;28;20052;-68
2022/12/05 00:28:01;;;;;;;39.63;20.42;;;;;;;3.28;95.65;101153.66;5055283;28;20474;-68
2022/12/05 00:30:26;;;;;;;35.85;17.40;;;;;;;3.26;95.78;101157.81;5063896;28;20457;-68
2022/12/05 00:32:51;;;;;;;36.28;17.63;;;;;;;3.24;95.44;101158.59;5064666;28;20086;-68
2022/12/05 00:35:17;;;;;;;35.85;18.42;;;;;;;3.23;95.50;101159.47;5065113;28;20059;-67
2022/12/05 00:37:42;;;;;;;41.92;19.52;;;;;;;3.24;96.13;101163.72;5065357;28;20068;-67
2022/12/05 00:40:08;;;;;;;37.72;18.20;;;;;;;3.24;95.27;101162.03;5063370;28;20033;-68
2022/12/05 00:42:33;;;;;;;39.88;20.42;;;;;;;3.24;96.09;101164.59;5064356;28;20063;-68
2022/12/05 00:44:59;;;;;;;39.65;20.05;;;;;;;3.23;95.44;101160.28;5062350;28;20102;-67
2022/12/05 00:47:24;;;;;;;36.55;18.63;;;;;;;3.21;96.36;101159.41;5064890;28;20113;-67
2022/12/05 00:49:49;;;;;;;39.22;19.67;;;;;;;3.23;96.42;101156.91;5063544;28;20036;-67
2022/12/05 00:52:15;;;;;;;45.78;20.50;;;;;;;3.24;96.21;101156.94;5051770;28;20032;-66
2022/12/05 00:54:40;;;;;;;40.00;18.73;;;;;;;3.25;96.39;101157.81;5050862;28;20057;-67
2022/12/05 00:57:05;;;;;;;41.13;20.08;;;;;;;3.26;96.58;101159.53;5044411;28;20154;-67
2022/12/05 00:59:31;;;;;;;37.88;19.30;;;;;;;3.27;96.56;101157.00;5058473;28;20544;-67
2022/12/05 01:01:56;;;;;;;38.65;18.65;;;;;;;3.27;95.75;101162.13;5060388;28;20029;-66
2022/12/05 01:04:23;;;;;;;37.95;19.10;;;;;;;3.25;96.29;101157.81;5058010;28;20108;-67
2022/12/05 01:06:50;;;;;;;37.88;17.58;;;;;;;3.21;96.05;101161.94;5064812;28;20082;-67
2022/12/05 01:09:18;;;;;;;45.15;20.95;;;;;;;3.20;96.46;101169.59;5050135;28;20037;-67
2022/12/05 01:11:44;;;;;;;44.70;20.58;;;;;;;3.20;96.06;101167.03;5045157;28;20033;-67
2022/12/05 01:14:12;;;;;;;37.33;18.60;;;;;;;3.18;96.74;101168.66;5044404;28;20580;-67
2022/12/05 01:16:39;;;;;;;41.17;19.92;;;;;;;3.15;96.89;101160.91;5044266;28;20044;-67
2022/12/05 01:19:11;;;;;;;35.45;18.83;;;;;;;3.12;95.89;101171.91;5061897;28;20036;-67
2022/12/05 01:21:36;;;;;;;35.40;17.70;;;;;;;3.12;96.03;101173.59;5060573;28;20068;-62
2022/12/05 01:24:02;;;;;;;34.42;17.10;;;;;;;3.12;96.19;101181.25;5062761;28;20781;-61
2022/12/05 01:26:27;;;;;;;38.97;18.95;;;;;;;3.11;96.90;101179.53;5044302;28;20041;-61
2022/12/05 01:28:53;;;;;;;38.05;17.27;;;;;;;3.11;96.81;101187.22;5042832;28;20044;-63
2022/12/05 01:31:30;;;;;;;40.38;18.00;;;;;;;3.11;96.89;101194.88;5042400;28;20113;-62
2022/12/05 01:33:58;;;;;;;35.83;17.25;;;;;;;3.10;96.75;101185.47;5059299;28;20241;-61
2022/12/05 01:36:25;;;;;;;37.65;17.85;;;;;;;3.09;97.18;101191.38;5063706;28;20028;-63
2022/12/05 01:38:51;;;;;;;38.38;19.27;;;;;;;3.08;96.41;101199.88;5064889;28;20052;-64
2022/12/05 01:41:41;;;;;;;40.25;19.42;;;;;;;3.08;97.25;101190.53;5055979;28;20037;-63
2022/12/05 01:44:09;;;;;;;34.47;16.90;;;;;;;3.08;96.97;101205.88;5053371;28;20036;-63
2022/12/05 01:46:38;;;;;;;36.20;18.33;;;;;;;3.05;96.52;101203.22;5043428;28;20055;-62
2022/12/05 01:49:12;;;;;;;33.85;18.00;;;;;;;3.04;97.11;101204.03;5042820;28;20057;-63
2022/12/05 01:51:40;;;;;;;37.42;17.85;;;;;;;3.01;96.98;101196.28;5053688;28;20548;-63
2022/12/05 01:54:07;;;;;;;35.63;18.67;;;;;;;3.01;97.38;101210.75;5060308;28;20043;-62
2022/12/05 01:56:35;;;;;;;36.17;16.63;;;;;;;2.97;96.65;101204.66;5063525;28;20111;-62
2022/12/05 01:59:02;;;;;;;37.88;17.75;;;;;;;2.95;97.12;101208.88;5060597;28;20098;-63
2022/12/05 02:01:28;;;;;;;34.17;17.77;;;;;;;2.93;96.40;101213.09;5060437;28;20055;-63
2022/12/05 02:03:57;;;;;;;36.55;17.70;;;;;;;2.88;96.89;101209.50;5063074;28;20517;-63
2022/12/05 02:06:25;;;;;;;37.05;17.55;;;;;;;2.84;97.04;101211.13;5062744;28;20097;-63
2022/12/05 02:08:52;;;;;;;33.05;16.38;;;;;;;2.81;96.56;101205.06;5054023;28;20498;-63
2022/12/05 02:11:18;;;;;;;34.38;17.33;;;;;;;2.75;97.07;101210.84;5044853;28;20068;-63
2022/12/05 02:14:08;;;;;;;38.88;18.67;;;;;;;2.70;96.70;101212.38;5049344;28;20069;-63
2022/12/05 02:16:56;;;;;;;38.28;18.13;;;;;;;2.68;96.59;101210.59;5058040;28;20068;-63
2022/12/05 02:19:59;;;;;;;35.78;18.08;;;;;;;2.64;97.40;101212.19;5044147;28;20029;-63
2022/12/05 02:22:50;;;;;;;35.17;17.27;;;;;;;2.62;97.34;101211.28;5041597;28;20033;-63
2022/12/05 02:25:21;;;;;;;39.25;18.55;;;;;;;2.62;97.31;101208.75;5039793;28;20047;-63
2022/12/05 02:28:18;;;;;;;37.15;17.30;;;;;;;2.57;96.77;101215.41;5050198;28;20029;-63
2022/12/05 02:31:00;;;;;;;36.47;17.90;;;;;;;2.45;96.25;101211.59;5055111;28;20048;-63
2022/12/05 02:33:49;;;;;;;36.33;18.05;;;;;;;2.37;96.75;101213.88;5035065;28;20029;-62
2022/12/05 02:36:28;;;;;;;38.00;17.55;;;;;;;2.32;96.61;101206.09;5048085;28;20397;-63
2022/12/05 02:38:56;;;;;;;38.85;17.65;;;;;;;2.27;96.39;101211.88;5050352;28;20040;-63
2022/12/05 02:41:38;;;;;;;31.80;15.90;;;;;;;2.18;96.21;101212.44;5058056;28;20045;-64
2022/12/05 02:44:12;;;;;;;36.33;16.55;;;;;;;2.12;96.36;101213.94;5062062;28;20086;-64
2022/12/05 02:46:39;;;;;;;29.07;16.03;;;;;;;2.01;96.13;101210.16;5062031;28;20063;-64
2022/12/05 02:49:09;;;;;;;30.02;16.10;;;;;;;1.92;95.52;101217.50;5048524;28;20514;-63
2022/12/05 02:51:42;;;;;;;23.00;12.88;;;;;;;1.83;95.40;101215.53;5048313;28;20028;-63
2022/12/05 02:54:11;;;;;;;29.77;15.30;;;;;;;1.74;95.45;101212.66;5051511;28;20025;-63
2022/12/05 02:56:37;;;;;;;34.90;17.70;;;;;;;1.67;95.09;101220.91;5049578;28;20032;-63
2022/12/05 02:59:03;;;;;;;30.65;16.13;;;;;;;1.60;95.27;101211.31;5041831;28;20064;-63
2022/12/05 03:01:31;;;;;;;32.08;16.73;;;;;;;1.56;95.56;101222.22;5042513;28;20118;-58
2022/12/05 03:04:00;;;;;;;30.40;15.18;;;;;;;1.51;95.66;101214.41;5045066;28;20037;-59
2022/12/05 03:06:31;;;;;;;32.55;15.65;;;;;;;1.48;95.70;101214.28;5054337;28;20075;-58
2022/12/05 03:09:01;;;;;;;30.70;15.85;;;;;;;1.45;95.94;101210.78;5057811;28;20032;-58
2022/12/05 03:11:37;;;;;;;31.52;15.50;;;;;;;1.41;95.77;101214.91;5064339;28;20036;-58
2022/12/05 03:14:06;;;;;;;29.85;15.57;;;;;;;1.38;95.86;101219.03;5051118;28;20041;-58
2022/12/05 03:16:44;;;;;;;35.50;17.85;;;;;;;1.37;95.88;101217.28;5057892;28;20040;-59
2022/12/05 03:19:15;;;;;;;30.73;16.25;;;;;;;1.34;96.23;101218.03;5046631;28;20576;-59
2022/12/05 03:22:00;;;;;;;36.30;16.25;;;;;;;1.33;96.32;101218.00;5057538;28;20042;-58
2022/12/05 03:24:26;;;;;;;32.28;17.70;;;;;;;1.30;96.47;101219.59;5052995;28;20037;-58
2022/12/05 03:27:14;;;;;;;39.50;17.90;;;;;;;1.30;96.55;101224.69;5059962;28;20694;-58
2022/12/05 03:29:42;;;;;;;35.13;18.02;;;;;;;1.30;96.42;101221.31;5056903;28;20068;-59
2022/12/05 03:32:13;;;;;;;39.55;18.30;;;;;;;1.29;95.84;101228.06;5068096;28;20765;-59
2022/12/05 03:34:57;;;;;;;36.38;17.88;;;;;;;1.28;96.97;101226.34;5068223;28;20049;-59
2022/12/05 03:38:02;;;;;;;38.78;18.05;;;;;;;1.28;96.68;101239.06;5050102;28;20156;-59
2022/12/05 03:40:37;;;;;;;38.65;16.75;;;;;;;1.27;96.55;101233.94;5051571;28;20039;-60
2022/12/05 03:43:19;;;;;;;28.77;14.88;;;;;;;1.25;96.63;101236.41;5068281;28;20937;-60
2022/12/05 03:46:10;;;;;;;37.00;18.63;;;;;;;1.25;96.81;101240.63;5055732;28;20040;-60
2022/12/05 03:48:51;;;;;;;52.92;21.85;;;;;;;1.21;96.83;101236.25;5062868;28;20171;-61
2022/12/05 03:51:20;;;;;;;36.28;17.55;;;;;;;1.21;96.89;101236.25;5051130;28;20037;-61
2022/12/05 03:54:03;;;;;;;37.53;18.48;;;;;;;1.20;96.97;101242.16;5062473;28;20615;-61
2022/12/05 03:56:37;;;;;;;32.55;17.27;;;;;;;1.19;97.10;101246.38;5028444;28;20041;-61
2022/12/05 03:59:41;;;;;;;38.92;17.30;;;;;;;1.19;97.10;101240.41;5055900;28;20642;-61
2022/12/05 04:02:19;;;;;;;46.97;19.23;;;;;;;1.18;97.04;101243.78;5060255;28;20068;-60
2022/12/05 04:04:52;;;;;;;40.92;19.05;;;;;;;1.17;96.94;101245.44;5053774;28;20032;-60
2022/12/05 04:07:19;;;;;;;42.55;19.55;;;;;;;1.17;97.16;101249.66;5054247;28;20039;-61
2022/12/05 04:09:54;;;;;;;39.80;18.95;;;;;;;1.15;97.14;101248.75;5057877;28;20035;-60
2022/12/05 04:12:27;;;;;;;46.92;19.55;;;;;;;1.14;96.92;101249.56;5043765;28;20737;-61
2022/12/05 04:15:00;;;;;;;35.92;18.45;;;;;;;1.14;97.13;101250.44;5045691;28;20110;-60
2022/12/05 04:17:41;;;;;;;50.60;21.85;;;;;;;1.13;97.38;101253.78;5037203;28;20057;-60
2022/12/05 04:23:01;;;;;;;42.88;19.35;;;;;;;1.14;97.73;101258.06;5045219;28;20202;-60
2022/12/05 04:25:35;;;;;;;43.92;20.08;;;;;;;1.15;97.40;101253.84;5044743;28;20047;-60
2022/12/05 04:28:39;;;;;;;45.28;20.08;;;;;;;1.14;97.46;101252.97;5045319;28;20065;-61
2022/12/05 04:31:10;;;;;;;43.33;19.23;;;;;;;1.15;97.27;101251.31;5029666;28;20438;-60
2022/12/05 04:33:49;;;;;;;45.22;19.92;;;;;;;1.16;97.73;101263.19;5047522;28;20036;-61
2022/12/05 04:36:39;;;;;;;41.78;20.67;;;;;;;1.17;97.44;101263.28;5053446;28;20040;-61
2022/12/05 04:39:12;;;;;;;38.65;18.23;;;;;;;1.17;97.66;101273.47;5064576;28;20127;-60
2022/12/05 04:41:41;;;;;;;38.08;18.35;;;;;;;1.20;97.63;101265.06;5064939;28;20635;-61
2022/12/05 04:44:11;;;;;;;40.17;19.92;;;;;;;1.20;97.86;101277.78;5064541;28;20045;-60
2022/12/05 04:46:40;;;;;;;47.90;21.50;;;;;;;1.18;97.47;101275.16;5063218;28;20044;-60
2022/12/05 04:49:09;;;;;;;44.00;19.98;;;;;;;1.18;97.68;101272.63;5064763;28;20128;-61
2022/12/05 04:51:37;;;;;;;49.75;20.52;;;;;;;1.18;97.30;101270.06;5050708;28;20481;-61
2022/12/05 04:54:22;;;;;;;36.90;17.20;;;;;;;1.20;97.60;101272.69;5056466;28;20025;-61
2022/12/05 04:56:51;;;;;;;47.15;20.58;;;;;;;1.20;97.58;101268.47;5044769;28;20123;-61
2022/12/05 04:59:16;;;;;;;45.15;21.17;;;;;;;1.20;97.67;101271.03;5043902;28;20033;-61
2022/12/05 05:01:51;;;;;;;41.30;18.58;;;;;;;1.19;97.36;101256.53;5044716;28;20193;-61
2022/12/05 05:04:30;;;;;;;43.75;19.55;;;;;;;1.21;97.41;101271.91;5057363;28;20124;-61
2022/12/05 05:06:56;;;;;;;31.38;15.15;;;;;;;1.22;97.74;101260.88;5052595;28;20409;-61
2022/12/05 05:09:21;;;;;;;42.33;18.60;;;;;;;1.24;97.44;101274.56;5041984;28;20037;-61
2022/12/05 05:11:47;;;;;;;35.58;17.38;;;;;;;1.25;97.63;101261.00;5044831;28;20040;-60
2022/12/05 05:14:13;;;;;;;42.20;18.05;;;;;;;1.27;97.64;101272.13;5063057;28;20112;-61
2022/12/05 05:16:40;;;;;;;38.65;19.02;;;;;;;1.28;97.79;101261.09;5062629;28;20420;-61
2022/12/05 05:19:07;;;;;;;38.08;18.10;;;;;;;1.29;97.87;101265.41;5054891;28;20095;-61
2022/12/05 05:21:36;;;;;;;43.45;20.15;;;;;;;1.29;97.52;101268.81;5059616;28;20032;-61
2022/12/05 05:24:03;;;;;;;46.33;21.83;;;;;;;1.31;97.53;101273.94;5061402;28;20064;-61
2022/12/05 05:26:29;;;;;;;37.80;17.33;;;;;;;1.32;97.68;101272.28;5044095;28;20037;-61
2022/12/05 05:28:57;;;;;;;48.13;22.55;;;;;;;1.34;97.75;101279.16;5041030;28;20036;-61
2022/12/05 05:31:22;;;;;;;52.88;23.58;;;;;;;1.36;97.83;101271.59;5035446;28;20445;-61
2022/12/05 05:33:49;;;;;;;46.03;21.02;;;;;;;1.36;97.66;101269.88;5059406;28;20032;-61
2022/12/05 05:36:14;;;;;;;51.15;22.95;;;;;;;1.38;98.14;101270.84;5043729;28;20120;-61
2022/12/05 05:38:42;;;;;;;42.03;19.20;;;;;;;1.40;97.97;101276.84;5046056;28;20180;-61
2022/12/05 05:41:22;;;;;;;43.10;19.80;;;;;;;1.42;97.75;101279.44;5063011;28;20040;-61
2022/12/05 05:43:49;;;;;;;46.30;20.88;;;;;;;1.44;98.03;101276.16;5059329;28;20383;-61
2022/12/05 05:46:16;;;;;;;48.17;21.35;;;;;;;1.44;97.83;101280.38;5047135;28;20079;-61
2022/12/05 05:48:41;;;;;;;47.65;21.85;;;;;;;1.46;97.86;101279.59;5042649;28;20098;-62
2022/12/05 05:51:09;;;;;;;51.40;21.38;;;;;;;1.48;98.01;101277.13;5055188;28;20029;-61
2022/12/05 05:53:35;;;;;;;43.65;20.10;;;;;;;1.47;98.04;101278.81;5057210;28;20427;-61
2022/12/05 05:56:06;;;;;;;49.97;19.58;;;;;;;1.49;98.25;101279.72;5043412;28;20510;-61
2022/12/05 05:58:32;;;;;;;46.42;20.45;;;;;;;1.51;97.99;101282.34;5048570;28;20060;-61
2022/12/05 06:01:06;;;;;;;48.70;20.15;;;;;;;1.50;98.08;101286.56;5061097;28;20036;-62
2022/12/05 06:03:32;;;;;;;42.05;19.80;;;;;;;1.51;97.79;101289.97;5057316;28;20048;-61
2022/12/05 06:05:59;;;;;;;37.35;20.08;;;;;;;1.53;97.91;101290.88;5042616;28;20029;-62
2022/12/05 06:08:24;;;;;;;43.60;19.20;;;;;;;1.54;97.86;101301.13;5037647;28;20717;-62
2022/12/05 06:10:50;;;;;;;44.70;20.60;;;;;;;1.56;98.11;101296.09;5038174;28;20037;-61
2022/12/05 06:13:15;;;;;;;43.83;21.25;;;;;;;1.57;98.06;101300.34;5043079;28;20032;-61
2022/12/05 06:15:41;;;;;;;43.47;19.88;;;;;;;1.58;98.22;101302.97;5042799;28;20037;-62
2022/12/05 06:18:06;;;;;;;48.53;19.48;;;;;;;1.60;98.26;101303.88;5043062;28;20033;-61
2022/12/05 06:20:32;;;;;;;48.85;20.25;;;;;;;1.62;97.81;101306.50;5055619;28;20051;-62
2022/12/05 06:22:57;;;;;;;35.42;17.92;;;;;;;1.62;98.33;101297.19;5062517;28;20033;-62
2022/12/05 06:25:22;;;;;;;38.50;17.67;;;;;;;1.63;98.34;101298.91;5031766;28;20457;-62
2022/12/05 06:27:48;;;;;;;46.85;19.58;;;;;;;1.63;97.98;101293.81;5041657;28;20029;-62
2022/12/05 06:30:13;;;;;;;47.28;21.27;;;;;;;1.65;97.99;101301.53;5042005;28;20036;-62
2022/12/05 06:32:39;;;;;;;44.47;19.30;;;;;;;1.63;98.00;101303.13;5043008;28;20107;-62
2022/12/05 06:35:13;;;;;;;40.00;19.95;;;;;;;1.63;97.67;101298.91;5060434;28;20031;-62
2022/12/05 06:37:39;;;;;;;40.35;19.58;;;;;;;1.64;97.99;101303.19;5035174;28;20335;-62
2022/12/05 06:40:05;;;;;;;47.88;20.35;;;;;;;1.65;98.44;101304.94;5035337;28;20040;-62
2022/12/05 06:42:31;;;;;;;38.58;18.60;;;;;;;1.66;97.85;101308.34;5046098;28;20447;-69
2022/12/05 06:44:56;;;;;;;40.30;19.20;;;;;;;1.68;98.30;101311.81;5023944;28;20030;-68
2022/12/05 06:47:21;;;;;;;35.85;18.27;;;;;;;1.68;97.86;101314.38;5043628;28;20037;-69
2022/12/05 06:49:47;;;;;;;38.85;18.38;;;;;;;1.69;98.37;101311.88;5055664;28;20043;-69
2022/12/05 06:52:12;;;;;;;38.25;18.85;;;;;;;1.70;97.94;101316.16;5062659;28;20166;-69
2022/12/05 06:54:38;;;;;;;40.63;20.10;;;;;;;1.69;98.06;101319.50;5056796;28;20547;-69
2022/12/05 06:57:03;;;;;;;41.35;18.60;;;;;;;1.70;98.07;101321.25;5062190;28;20032;-69
2022/12/05 06:59:28;;;;;;;41.80;20.02;;;;;;;1.71;98.47;101322.13;5062330;28;20593;-69
2022/12/05 07:01:54;;;;;;;35.95;18.77;;;;;;;1.71;97.63;101325.56;5062684;28;20040;-69
2022/12/05 07:04:25;;;;;;;34.40;18.00;;;;;;;1.73;97.67;101326.47;5062533;28;20067;-69
2022/12/05 07:06:52;;;;;;;35.92;17.88;;;;;;;1.75;98.36;101329.06;5055975;28;20098;-69
2022/12/05 07:09:20;;;;;;;31.23;16.55;;;;;;;1.76;98.19;101333.34;5056184;28;20079;-69
2022/12/05 07:11:50;;;;;;;34.45;17.70;;;;;;;1.78;98.27;101336.81;5062930;28;20029;-69
2022/12/05 07:14:16;;;;;;;39.60;19.15;;;;;;;1.78;98.12;101332.59;5061046;28;20087;-69
2022/12/05 07:16:41;;;;;;;34.20;17.05;;;;;;;1.79;97.68;101334.31;5060346;28;20043;-69
2022/12/05 07:19:09;;;;;;;29.45;16.80;;;;;;;1.80;98.11;101337.75;5058539;28;20270;-69
2022/12/05 07:21:34;;;;;;;32.20;16.35;;;;;;;1.84;98.07;101342.13;5059386;28;20426;-69
2022/12/05 07:24:00;;;;;;;29.90;16.23;;;;;;;1.88;98.34;101345.66;5055102;28;20071;-69
2022/12/05 07:26:25;;;;;;;31.58;18.00;;;;;;;1.90;98.06;101350.00;5062745;28;20024;-69
2022/12/05 07:28:54;;;;;;;26.08;14.98;;;;;;;1.94;98.08;101346.75;5062197;28;20032;-69
2022/12/05 07:31:21;;;;;;;37.17;19.23;;;;;;;2.02;98.07;101350.44;5061188;28;20044;-69
2022/12/05 07:33:48;;;;;;;32.03;17.92;;;;;;;2.08;97.78;101355.75;5061179;28;20106;-69
2022/12/05 07:36:15;;;;;;;30.83;17.13;;;;;;;2.12;98.02;101357.59;5047610;28;20532;-69
2022/12/05 07:38:42;;;;;;;29.92;17.70;;;;;;;2.16;97.93;101358.56;5042375;28;20029;-69
2022/12/05 07:41:12;;;;;;;28.08;16.83;;;;;;;2.19;98.06;101361.22;5046968;28;20028;-70
2022/12/05 07:43:38;;;;;;;25.38;14.77;;;;;;;2.19;97.96;101359.53;5059777;28;20114;-69
2022/12/05 07:46:05;;;;;;;28.13;14.90;;;;;;;2.21;97.68;101372.34;5042222;28;20040;-69
2022/12/05 07:48:31;;;;;;;31.05;16.10;;;;;;;2.22;97.35;101369.81;5041840;28;20055;-69
2022/12/05 07:51:01;;;;;;;23.55;14.73;;;;;;;2.27;97.60;101370.88;5049506;28;20025;-68
2022/12/05 07:53:28;;;;;;;23.95;13.93;;;;;;;2.27;97.41;101375.09;5053481;28;20029;-69
2022/12/05 07:55:53;;;;;;;24.25;13.57;;;;;;;2.24;97.04;101375.88;5041934;28;20657;-70
2022/12/05 07:58:19;;;;;;;21.75;12.52;;;;;;;2.24;97.12;101372.44;5042308;28;20037;-69
2022/12/05 08:00:44;;;;;;;20.05;13.05;;;;;;;2.27;97.26;101378.53;5041310;28;20037;-69
2022/12/05 08:03:09;;;;;;;21.85;12.52;;;;;;;2.27;97.55;101378.53;5042005;28;20151;-69
2022/12/05 08:05:36;;;;;;;18.17;11.52;;;;;;;2.28;97.51;101377.69;5042117;28;20424;-69
2022/12/05 08:08:01;;;;;;;18.63;12.40;;;;;;;2.27;97.41;101375.97;5055008;28;20099;-69
2022/12/05 08:10:27;;;;;;;24.92;12.32;;;;;;;2.29;96.91;101379.44;5041153;28;20037;-69
2022/12/05 08:12:52;;;;;;;16.60;10.43;;;;;;;2.35;97.48;101376.22;5052290;28;20036;-70
2022/12/05 08:15:17;;;;;;;21.17;11.65;;;;;;;2.40;97.78;101380.66;5045549;28;20032;-69
2022/12/05 08:17:43;;;;;;;22.73;13.63;;;;;;;2.44;97.21;101384.19;5053941;28;20183;-70
2022/12/05 08:20:09;;;;;;;19.65;12.30;;;;;;;2.47;97.63;101375.78;5050094;28;20029;-70
2022/12/05 08:22:34;;;;;;;18.02;11.38;;;;;;;2.49;97.40;101375.00;5062026;28;20072;-69
2022/12/05 08:24:59;;;;;;;24.35;13.68;;;;;;;2.51;97.20;101377.63;5059227;28;20040;-70
2022/12/05 08:27:26;;;;;;;21.35;13.15;;;;;;;2.52;97.25;101385.31;5064962;28;20102;-70
2022/12/05 08:29:53;;;;;;;19.38;12.27;;;;;;;2.53;97.06;101392.16;5065182;28;20075;-70
2022/12/05 08:32:18;;;;;;;21.00;12.70;;;;;;;2.53;96.66;101399.81;5064485;28;20029;-70
2022/12/05 08:34:43;;;;;;;23.42;14.30;;;;;;;2.51;95.98;101396.34;5064967;28;20039;-70
2022/12/05 08:37:09;;;;;;;20.75;13.20;;;;;;;2.56;96.39;101399.06;5065390;28;20054;-70
2022/12/05 08:39:35;;;;;;;21.85;13.77;;;;;;;2.64;96.64;101405.28;5065008;28;20481;-71
2022/12/05 08:42:01;;;;;;;21.85;14.32;;;;;;;2.74;97.01;101408.19;5065388;28;20044;-69
2022/12/05 08:44:26;;;;;;;21.17;13.20;;;;;;;2.81;96.46;101406.72;5038538;28;20460;-69
2022/12/05 08:46:51;;;;;;;22.45;14.50;;;;;;;2.83;96.59;101403.41;5047676;28;20037;-70
2022/12/05 08:49:17;;;;;;;22.45;14.45;;;;;;;2.84;95.68;101409.38;5055135;28;20036;-69
2022/12/05 08:51:43;;;;;;;22.77;14.73;;;;;;;2.94;95.36;101407.16;5060023;28;20044;-70
2022/12/05 08:54:08;;;;;;;20.90;14.63;;;;;;;2.94;94.79;101406.28;5056265;28;20036;-69
2022/12/05 08:56:34;;;;;;;19.63;13.18;;;;;;;2.98;94.22;101405.56;5045882;28;20405;-69
2022/12/05 08:59:01;;;;;;;21.70;13.63;;;;;;;2.95;93.60;101411.47;5045437;28;20041;-69
2022/12/05 09:01:30;;;;;;;23.48;14.98;;;;;;;3.02;94.36;101420.19;5044560;28;20033;-70
2022/12/05 09:03:56;;;;;;;22.58;13.75;;;;;;;3.07;94.83;101415.22;5045042;28;20119;-69
2022/12/05 09:06:23;;;;;;;21.00;13.27;;;;;;;3.09;93.87;101417.00;5055915;28;20028;-69
2022/12/05 09:08:53;;;;;;;21.02;14.07;;;;;;;3.07;93.62;101412.66;5063434;28;20044;-69
2022/12/05 09:11:22;;;;;;;23.02;14.40;;;;;;;3.05;94.27;101411.75;5051352;28;20474;-69
2022/12/05 09:13:49;;;;;;;20.52;13.45;;;;;;;3.10;94.47;101413.63;5056221;28;20036;-69
2022/12/05 09:16:21;;;;;;;25.17;14.18;;;;;;;3.11;93.70;101417.06;5044196;28;20029;-69
2022/12/05 09:18:48;;;;;;;23.50;14.40;;;;;;;3.10;94.35;101420.41;5044977;28;20068;-69
2022/12/05 09:21:22;;;;;;;23.52;15.20;;;;;;;3.09;93.58;101423.78;5048408;28;20100;-68
2022/12/05 09:23:48;;;;;;;22.08;14.02;;;;;;;3.15;94.82;101429.97;5049939;28;20082;-68
2022/12/05 09:26:16;;;;;;;24.60;15.43;;;;;;;3.18;94.31;101435.16;5064840;28;20063;-68
2022/12/05 09:28:43;;;;;;;22.70;13.88;;;;;;;3.23;94.65;101431.06;5052973;28;20099;-68
2022/12/05 09:31:22;;;;;;;26.10;14.95;;;;;;;3.27;94.97;101429.47;5046168;28;20182;-68
2022/12/05 09:33:49;;;;;;;21.85;14.25;;;;;;;3.27;94.73;101435.47;5050204;28;20039;-68
2022/12/05 09:36:17;;;;;;;19.30;12.75;;;;;;;3.25;95.28;101437.09;5053248;28;20078;-69
2022/12/05 09:38:43;;;;;;;22.90;14.25;;;;;;;3.25;95.15;101446.47;5065763;28;20036;-68
2022/12/05 09:41:14;;;;;;;24.95;15.23;;;;;;;3.24;95.41;101443.03;5064370;28;20040;-68
2022/12/05 09:43:49;;;;;;;23.08;15.13;;;;;;;3.26;94.84;101445.66;5043301;28;20055;-68
2022/12/05 09:46:50;;;;;;;25.20;15.98;;;;;;;3.27;94.95;101448.25;5035998;28;20055;-68
2022/12/05 09:49:16;;;;;;;22.42;15.40;;;;;;;3.28;94.99;101442.31;5049671;28;20033;-68
2022/12/05 09:51:44;;;;;;;23.92;14.90;;;;;;;3.30;95.29;101443.22;5051075;28;20458;-68
2022/12/05 09:54:11;;;;;;;23.90;15.48;;;;;;;3.28;94.46;101452.53;5056657;28;20125;-68
2022/12/05 09:56:40;;;;;;;22.05;14.65;;;;;;;3.30;94.80;101443.22;5045572;28;20037;-68
2022/12/05 09:59:12;;;;;;;24.58;15.23;;;;;;;3.29;94.48;101441.47;5050193;28;20037;-69
2022/12/05 10:01:49;;;;;;;23.85;15.63;;;;;;;3.33;94.32;101437.34;5064194;28;20143;-68
2022/12/05 10:04:23;;;;;;;23.42;14.30;;;;;;;3.38;95.14;101443.44;5056773;28;20545;-68
2022/12/05 10:07:28;;;;;;;23.95;14.85;;;;;;;3.38;93.96;101446.88;5060000;28;20094;-69
2022/12/05 10:10:20;;;;;;;22.98;14.43;;;;;;;3.41;94.12;101446.97;5040454;28;20047;-68
2022/12/05 10:13:23;;;;;;;24.25;14.40;;;;;;;3.49;93.88;101450.66;5063977;28;20039;-68
2022/12/05 10:15:52;;;;;;;23.88;15.07;;;;;;;3.56;93.78;101443.19;5063618;28;20035;-69
2022/12/05 10:18:39;;;;;;;23.30;14.73;;;;;;;3.62;93.68;101439.09;5054624;28;20120;-69
2022/12/05 10:21:08;;;;;;;25.55;15.85;;;;;;;3.67;93.62;101444.38;5062668;28;20059;-68
2022/12/05 10:23:48;;;;;;;23.05;13.98;;;;;;;3.68;93.69;101440.97;5063819;28;20032;-69
2022/12/05 10:26:15;;;;;;;23.63;14.43;;;;;;;3.70;93.78;101442.78;5062958;28;20047;-69
2022/12/05 10:29:01;;;;;;;23.48;13.98;;;;;;;3.73;93.12;101444.56;5062259;28;20037;-68
2022/12/05 10:31:31;;;;;;;25.40;16.30;;;;;;;3.74;93.36;101442.03;5062498;28;20086;-68
2022/12/05 10:34:03;;;;;;;25.85;15.30;;;;;;;3.77;93.11;101442.13;5056534;28;20466;-68
2022/12/05 10:36:29;;;;;;;19.38;14.25;;;;;;;3.81;92.98;101441.41;5043149;28;20093;-68
2022/12/05 10:38:56;;;;;;;20.90;14.20;;;;;;;3.84;92.73;101443.16;5045281;28;20020;-68
2022/12/05 10:41:22;;;;;;;21.10;13.75;;;;;;;3.88;93.09;101437.34;5028134;28;20806;-68
2022/12/05 10:43:48;;;;;;;20.00;13.30;;;;;;;3.88;92.97;101445.88;5033681;28;20041;-68
2022/12/05 10:46:15;;;;;;;21.95;14.95;;;;;;;3.90;92.33;101449.34;5033890;28;20060;-68
2022/12/05 10:48:41;;;;;;;20.20;14.77;;;;;;;3.87;92.41;101448.38;5042747;28;20041;-68
2022/12/05 10:51:13;;;;;;;23.73;15.30;;;;;;;3.83;92.06;101442.28;5054755;28;20320;-67
2022/12/05 10:53:48;;;;;;;23.45;13.98;;;;;;;3.85;92.56;101444.91;5056667;28;20139;-68
2022/12/05 10:56:36;;;;;;;21.73;13.80;;;;;;;3.85;92.70;101439.81;5041290;28;20086;-68
2022/12/05 10:59:02;;;;;;;24.52;14.65;;;;;;;3.86;91.81;101442.38;5052509;28;20460;-68
2022/12/05 11:01:28;;;;;;;21.00;14.38;;;;;;;3.88;92.38;101434.78;5060759;28;20036;-68
2022/12/05 11:04:06;;;;;;;23.30;14.68;;;;;;;3.92;91.91;101441.69;5061957;28;20040;-68
2022/12/05 11:06:31;;;;;;;21.27;13.77;;;;;;;3.93;91.89;101436.63;5062038;28;20047;-69
2022/12/05 11:09:22;;;;;;;23.15;15.13;;;;;;;3.90;92.24;101440.78;5052099;28;20041;-68
2022/12/05 11:12:04;;;;;;;23.15;14.77;;;;;;;3.86;92.43;101447.50;5040301;28;20048;-69
2022/12/05 11:14:32;;;;;;;23.77;14.73;;;;;;;3.84;92.25;101440.63;5038675;28;20569;-69
2022/12/05 11:16:59;;;;;;;24.63;14.55;;;;;;;3.84;91.94;101443.16;5049551;28;20135;-68
2022/12/05 11:19:33;;;;;;;22.35;14.70;;;;;;;3.82;92.93;101440.59;5060956;28;20029;-68
2022/12/05 11:21:59;;;;;;;23.03;14.67;;;;;;;3.78;91.88;101443.00;5063368;28;20035;-68
2022/12/05 11:24:26;;;;;;;22.40;15.30;;;;;;;3.75;92.36;101446.31;5064533;28;20265;-68
2022/12/05 11:26:52;;;;;;;23.60;15.30;;;;;;;3.72;92.84;101442.81;5062689;28;20042;-69
2022/12/05 11:29:30;;;;;;;21.83;14.65;;;;;;;3.73;92.51;101439.44;5061626;28;20033;-68
2022/12/05 11:31:56;;;;;;;24.45;15.45;;;;;;;3.74;92.60;101441.16;5062139;28;20063;-69
2022/12/05 11:34:53;;;;;;;23.67;15.13;;;;;;;3.77;92.26;101437.00;5061376;28;20505;-69